Time;durP1;ratioP1;P1;durP2;ratioP2;P2;SDS_P1;SDS_P2;PMS_P1;PMS_P2;Temp;Humidity;BMP_temperature;BMP_pressure;BME280_temperature;BME280_humidity;BME280_pressure;Samples;Min_cycle;Max_cycle;Signal;HPM_P1;HPM_P2
2023/10/01 04:06:52;;;;;;;0.30;0.30;;;10.20;99.90;;;;;;5160449;22;20749;-65
2023/10/01 04:09:19;;;;;;;0.30;0.20;;;10.10;99.90;;;;;;5093652;28;20525;-65
2023/10/01 04:11:51;;;;;;;0.30;0.30;;;10.10;99.90;;;;;;5093478;28;20179;-64
2023/10/01 04:14:17;;;;;;;0.30;0.20;;;10.10;99.90;;;;;;5093423;28;20524;-64
2023/10/01 04:16:46;;;;;;;0.30;0.30;;;10.10;99.90;;;;;;5093499;28;20202;-65
2023/10/01 04:19:18;;;;;;;0.30;0.30;;;10.10;99.90;;;;;;5093555;28;20179;-64
2023/10/01 04:21:50;;;;;;;0.30;0.30;;;10.10;99.90;;;;;;5093400;28;20168;-65
2023/10/01 04:24:22;;;;;;;0.30;0.30;;;10.10;99.90;;;;;;5093204;28;20224;-63
2023/10/01 04:26:48;;;;;;;0.30;0.30;;;10.00;99.90;;;;;;5093705;28;20676;-66
2023/10/01 04:29:16;;;;;;;0.30;0.30;;;10.10;99.90;;;;;;5092766;28;20171;-64
2023/10/01 04:31:48;;;;;;;0.40;0.40;;;10.10;99.90;;;;;;5093650;28;20182;-62
2023/10/01 04:34:14;;;;;;;0.30;0.30;;;10.10;99.90;;;;;;5092703;28;20178;-64
2023/10/01 04:36:43;;;;;;;0.30;0.30;;;10.00;99.90;;;;;;5092892;28;20184;-61
2023/10/01 04:39:09;;;;;;;0.40;0.40;;;10.10;99.90;;;;;;5093426;28;20168;-62
2023/10/01 04:41:35;;;;;;;0.30;0.30;;;10.00;99.90;;;;;;5093251;28;20171;-65
2023/10/01 04:44:07;;;;;;;0.40;0.40;;;10.00;99.90;;;;;;5092834;28;20197;-63
2023/10/01 04:46:37;;;;;;;0.40;0.40;;;10.00;99.90;;;;;;5093073;28;20422;-63
2023/10/01 04:49:26;;;;;;;0.30;0.30;;;10.00;99.90;;;;;;5093339;28;20522;-63
2023/10/01 04:51:53;;;;;;;0.30;0.30;;;10.00;99.90;;;;;;5093233;28;20168;-64
2023/10/01 04:54:21;;;;;;;0.30;0.30;;;10.00;99.90;;;;;;5093070;28;20175;-64
2023/10/01 04:56:48;;;;;;;0.30;0.30;;;10.00;99.90;;;;;;5093170;28;20199;-63
2023/10/01 04:59:18;;;;;;;0.30;0.30;;;9.90;99.90;;;;;;5074987;28;20172;-66
2023/10/01 05:01:47;;;;;;;0.30;0.30;;;9.90;99.90;;;;;;5093368;28;20277;-63
2023/10/01 05:04:14;;;;;;;0.40;0.40;;;9.90;99.90;;;;;;5092860;28;20207;-62
2023/10/01 05:06:43;;;;;;;0.40;0.40;;;9.90;99.90;;;;;;5092760;28;20202;-61
2023/10/01 05:09:09;;;;;;;0.40;0.40;;;9.90;99.90;;;;;;5093010;28;20168;-63
2023/10/01 05:11:35;;;;;;;0.30;0.30;;;9.90;99.90;;;;;;5093001;28;20251;-61
2023/10/01 05:14:04;;;;;;;0.40;0.40;;;9.90;99.90;;;;;;5092996;28;20263;-65
2023/10/01 05:16:31;;;;;;;0.30;0.30;;;10.00;99.90;;;;;;5092948;28;20673;-62
2023/10/01 05:19:09;;;;;;;0.30;0.30;;;10.10;99.90;;;;;;5093212;28;20545;-63
2023/10/01 05:21:49;;;;;;;0.40;0.40;;;10.10;99.90;;;;;;5093120;28;20178;-67
2023/10/01 05:24:34;;;;;;;0.30;0.30;;;10.20;99.90;;;;;;5092872;28;20548;-62
2023/10/01 05:27:08;;;;;;;0.35;0.35;;;10.20;99.90;;;;;;5093162;28;20168;-63
2023/10/01 05:29:34;;;;;;;0.30;0.30;;;10.30;99.90;;;;;;5093149;28;20173;-64
2023/10/01 05:32:01;;;;;;;0.35;0.35;;;10.30;99.90;;;;;;5092990;28;20578;-64
2023/10/01 05:34:28;;;;;;;0.30;0.30;;;10.30;99.90;;;;;;5092469;28;20188;-65
2023/10/01 05:37:08;;;;;;;0.30;0.30;;;10.40;99.90;;;;;;5092913;28;20241;-63
2023/10/01 05:39:55;;;;;;;0.30;0.30;;;10.40;99.90;;;;;;5074804;28;20601;-65
2023/10/01 05:42:25;;;;;;;5.07;2.05;;;10.40;99.90;;;;;;5096574;28;20164;-62
2023/10/01 05:44:55;;;;;;;0.35;0.35;;;10.40;99.90;;;;;;5077885;28;20616;-62
2023/10/01 05:47:22;;;;;;;0.40;0.40;;;10.40;99.90;;;;;;5096350;28;20165;-66
2023/10/01 05:49:49;;;;;;;0.35;0.35;;;10.40;99.90;;;;;;5096576;28;20168;-65
2023/10/01 05:52:18;;;;;;;0.70;0.70;;;10.40;99.90;;;;;;5096339;28;20169;-64
2023/10/01 05:54:52;;;;;;;0.40;0.40;;;10.40;99.90;;;;;;5095887;28;20169;-64
2023/10/01 05:57:19;;;;;;;0.30;0.30;;;10.40;99.90;;;;;;5096278;28;20160;-63
2023/10/01 05:59:56;;;;;;;0.30;0.30;;;10.40;99.90;;;;;;5096159;28;20196;-63
2023/10/01 06:02:41;;;;;;;0.95;0.75;;;10.40;99.90;;;;;;5096275;28;20240;-62
2023/10/01 06:07:56;;;;;;;0.30;0.30;;;10.70;99.90;;;;;;5088464;28;20184;-62
2023/10/01 06:10:35;;;;;;;0.60;0.60;;;10.80;99.90;;;;;;5095649;28;20630;-62
2023/10/01 06:13:06;;;;;;;0.30;0.30;;;10.90;99.90;;;;;;5096146;28;20157;-65
2023/10/01 06:15:33;;;;;;;0.30;0.30;;;11.10;99.90;;;;;;5095075;28;20192;-61
2023/10/01 06:18:04;;;;;;;0.30;0.30;;;11.20;99.90;;;;;;5094229;28;20165;-63
2023/10/01 06:20:33;;;;;;;0.30;0.30;;;11.40;99.90;;;;;;5075437;28;20179;-65
2023/10/01 06:22:59;;;;;;;0.30;0.30;;;11.50;99.90;;;;;;5075398;28;20496;-61
2023/10/01 06:25:40;;;;;;;0.30;0.30;;;11.70;99.90;;;;;;5074865;28;20462;-64
2023/10/01 06:28:09;;;;;;;0.30;0.20;;;11.90;99.90;;;;;;5075370;28;20410;-64
2023/10/01 06:30:40;;;;;;;0.30;0.30;;;12.00;99.90;;;;;;5075383;28;20421;-65
2023/10/01 06:33:24;;;;;;;0.30;0.30;;;12.10;99.90;;;;;;5061170;28;20396;-64
2023/10/01 06:36:15;;;;;;;0.43;0.43;;;12.20;99.90;;;;;;5095618;28;20439;-60
2023/10/01 06:38:41;;;;;;;0.30;0.30;;;12.30;99.90;;;;;;5095799;28;20404;-69
2023/10/01 06:41:13;;;;;;;0.40;0.40;;;12.20;99.90;;;;;;5095534;28;20775;-63
2023/10/01 06:43:48;;;;;;;0.30;0.30;;;12.20;99.90;;;;;;5095369;28;20544;-64
2023/10/01 06:46:19;;;;;;;0.30;0.30;;;12.20;99.90;;;;;;5095395;28;20440;-65
2023/10/01 06:48:51;;;;;;;0.30;0.30;;;12.30;99.90;;;;;;5083311;28;20422;-62
2023/10/01 06:51:21;;;;;;;0.33;0.33;;;12.40;99.90;;;;;;5074811;28;20494;-62
2023/10/01 06:53:58;;;;;;;0.77;0.57;;;12.50;99.90;;;;;;5073753;28;20430;-66
2023/10/01 06:56:25;;;;;;;0.30;0.30;;;12.60;99.90;;;;;;5074972;28;20434;-66
2023/10/01 07:01:42;;;;;;;0.50;0.50;;;13.20;99.90;;;;;;5074821;28;20411;-63
2023/10/01 07:04:11;;;;;;;0.33;0.33;;;13.90;99.90;;;;;;5090561;28;20478;-66
2023/10/01 07:06:37;;;;;;;0.30;0.30;;;14.80;99.90;;;;;;5074379;28;20452;-61
2023/10/01 07:09:24;;;;;;;0.30;0.20;;;15.60;99.90;;;;;;5074929;28;20433;-63
2023/10/01 07:11:56;;;;;;;1.43;1.33;;;16.40;99.90;;;;;;5074517;28;20419;-64
2023/10/01 07:14:38;;;;;;;0.50;0.50;;;17.30;99.90;;;;;;5073988;28;20808;-67
2023/10/01 07:17:18;;;;;;;0.50;0.50;;;18.20;99.90;;;;;;5074299;28;20411;-63
2023/10/01 07:19:45;;;;;;;0.40;0.40;;;18.70;99.90;;;;;;5089831;28;20433;-63
2023/10/01 07:22:14;;;;;;;0.30;0.20;;;19.10;99.90;;;;;;5076457;28;20394;-63
2023/10/01 07:24:40;;;;;;;1.77;1.67;;;19.40;99.90;;;;;;5073668;28;20821;-69
2023/10/01 07:27:09;;;;;;;0.30;0.30;;;19.70;99.90;;;;;;5074360;28;20418;-62
2023/10/01 07:29:36;;;;;;;0.80;0.80;;;19.90;99.90;;;;;;5074028;28;20404;-68
2023/10/01 07:32:07;;;;;;;1.13;1.13;;;20.20;99.90;;;;;;5074235;28;20391;-64
2023/10/01 07:34:35;;;;;;;0.40;0.30;;;20.60;99.90;;;;;;5089424;28;20426;-64
2023/10/01 07:37:04;;;;;;;0.57;0.57;;;21.00;99.90;;;;;;5094418;28;20402;-68
2023/10/01 07:39:37;;;;;;;0.30;0.30;;;21.40;99.70;;;;;;5094005;28;20388;-69
2023/10/01 07:42:04;;;;;;;0.80;0.60;;;22.00;99.20;;;;;;5094156;28;20370;-63
2023/10/01 07:44:35;;;;;;;1.10;0.50;;;22.50;97.70;;;;;;5093605;28;20435;-69
2023/10/01 07:47:06;;;;;;;0.40;0.40;;;23.10;96.50;;;;;;5092911;28;20403;-63
2023/10/01 07:49:48;;;;;;;0.30;0.30;;;23.60;96.00;;;;;;5089160;28;20869;-63
2023/10/01 07:52:17;;;;;;;0.40;0.30;;;24.00;95.10;;;;;;5094185;28;20380;-70
2023/10/01 07:54:44;;;;;;;0.30;0.30;;;24.40;95.10;;;;;;5093652;28;20812;-69
2023/10/01 07:57:13;;;;;;;0.40;0.40;;;24.90;93.60;;;;;;5093998;28;20385;-64
2023/10/01 07:59:42;;;;;;;0.73;0.73;;;25.50;93.30;;;;;;5093930;28;20432;-69
2023/10/01 08:05:19;;;;;;;0.63;0.50;;;26.90;91.20;;;;;;5072416;28;20917;-63
2023/10/01 08:07:22;;;;;;;0.57;0.57;;;27.60;88.90;;;;;;5059226;28;20196;-68
2023/10/01 08:09:51;;;;;;;0.50;0.50;;;28.00;86.50;;;;;;5073639;28;20444;-64
2023/10/01 08:13:23;;;;;;;0.90;0.50;;;28.30;85.50;;;;;;5073605;28;20407;-69
2023/10/01 08:15:29;;;;;;;0.43;0.43;;;28.40;84.70;;;;;;5055496;28;20431;-68
2023/10/01 08:18:26;;;;;;;0.60;0.60;;;27.90;83.40;;;;;;5082076;28;20906;-63
2023/10/01 08:20:58;;;;;;;0.60;0.60;;;27.50;87.20;;;;;;5092103;28;20466;-67
2023/10/01 08:23:33;;;;;;;1.10;0.60;;;27.70;85.70;;;;;;5093529;28;20425;-69
2023/10/01 08:28:56;;;;;;;0.80;0.80;;;28.60;83.70;;;;;;5094061;28;20401;-69
2023/10/01 08:34:22;;;;;;;0.73;0.73;;;29.40;81.40;;;;;;5073180;28;20924;-69
2023/10/01 08:36:55;;;;;;;0.97;0.97;;;29.90;78.40;;;;;;5055272;28;20470;-69
2023/10/01 08:42:08;;;;;;;0.67;0.57;;;30.60;76.40;;;;;;5073932;28;20431;-62
2023/10/01 08:44:47;;;;;;;0.70;0.70;;;31.10;75.50;;;;;;5072705;28;20466;-63
2023/10/01 08:47:45;;;;;;;1.17;0.93;;;31.30;73.70;;;;;;5080289;28;20203;-64
2023/10/01 08:50:27;;;;;;;0.80;0.80;;;31.10;73.40;;;;;;5093462;28;20429;-63
2023/10/01 08:52:57;;;;;;;0.40;0.40;;;30.90;74.60;;;;;;5093403;28;20468;-69
2023/10/01 08:56:04;;;;;;;0.40;0.40;;;30.90;74.60;;;;;;5092913;28;20438;-63
2023/10/01 08:58:27;;;;;;;0.50;0.50;;;30.90;74.20;;;;;;5093116;28;20417;-63
2023/10/01 09:01:12;;;;;;;1.00;0.50;;;30.90;74.80;;;;;;5093196;28;20463;-63
2023/10/01 09:03:39;;;;;;;0.90;0.90;;;31.10;75.60;;;;;;5071944;28;20975;-68
2023/10/01 09:06:08;;;;;;;0.40;0.40;;;31.70;73.70;;;;;;5072486;28;20794;-63
2023/10/01 09:08:43;;;;;;;0.57;0.57;;;32.00;72.90;;;;;;5073049;28;20393;-64
2023/10/01 09:11:17;;;;;;;0.50;0.50;;;32.20;71.50;;;;;;5073020;28;20398;-69
2023/10/01 09:14:35;;;;;;;1.07;0.83;;;32.30;71.60;;;;;;5072515;28;20469;-64
2023/10/01 09:16:42;;;;;;;0.93;0.60;;;32.50;69.30;;;;;;5074405;28;20511;-64
2023/10/01 09:21:55;;;;;;;1.00;1.00;;;32.80;70.80;;;;;;5081732;28;20413;-65
2023/10/01 09:24:39;;;;;;;0.73;0.67;;;33.00;68.80;;;;;;5096346;28;20544;-69
2023/10/01 09:27:09;;;;;;;0.50;0.50;;;33.00;69.20;;;;;;5096892;28;20502;-64
2023/10/01 09:29:43;;;;;;;0.57;0.57;;;32.60;68.60;;;;;;5096770;28;20398;-63
2023/10/01 09:32:19;;;;;;;0.70;0.70;;;32.40;69.00;;;;;;5094963;28;20403;-64
2023/10/01 09:34:57;;;;;;;0.50;0.50;;;32.10;69.60;;;;;;5096378;28;21871;-64
2023/10/01 09:37:34;;;;;;;0.70;0.70;;;31.40;70.10;;;;;;5096619;28;20402;-67
2023/10/01 09:40:05;;;;;;;0.50;0.50;;;31.20;72.10;;;;;;5096048;28;20414;-63
2023/10/01 09:42:44;;;;;;;0.57;0.57;;;31.50;71.70;;;;;;5096578;28;20392;-69
2023/10/01 09:45:26;;;;;;;0.63;0.63;;;31.80;71.40;;;;;;5096229;28;20433;-64
2023/10/01 09:48:09;;;;;;;0.50;0.50;;;31.70;70.90;;;;;;5084509;28;20415;-68
2023/10/01 09:50:42;;;;;;;0.50;0.50;;;31.80;71.30;;;;;;5076164;28;20411;-63
2023/10/01 09:53:13;;;;;;;1.03;1.03;;;31.80;69.50;;;;;;5076137;28;20415;-65
2023/10/01 09:55:48;;;;;;;0.60;0.60;;;31.60;70.00;;;;;;5075565;28;20470;-63
2023/10/01 09:58:28;;;;;;;0.50;0.50;;;31.70;70.50;;;;;;5076132;28;20406;-67
2023/10/01 10:00:55;;;;;;;0.70;0.70;;;31.90;67.80;;;;;;5076002;28;20411;-64
2023/10/01 10:03:21;;;;;;;0.87;0.80;;;32.00;68.10;;;;;;5093248;28;20422;-69
2023/10/01 10:05:48;;;;;;;0.40;0.40;;;32.00;68.20;;;;;;5087906;28;20487;-68
2023/10/01 10:08:20;;;;;;;0.80;0.53;;;31.80;67.60;;;;;;5075948;28;20403;-67
2023/10/01 10:10:50;;;;;;;0.50;0.50;;;31.40;67.20;;;;;;5075916;28;20402;-66
2023/10/01 10:13:38;;;;;;;0.90;0.90;;;31.40;67.90;;;;;;5076228;28;20903;-67
2023/10/01 10:19:20;;;;;;;0.50;0.50;;;31.80;67.30;;;;;;5095846;28;20405;-67
2023/10/01 10:24:30;;;;;;;0.30;0.30;;;31.60;65.50;;;;;;5095476;28;20397;-66
2023/10/01 10:27:15;;;;;;;1.40;0.60;;;31.40;65.10;;;;;;5094818;28;20399;-68
2023/10/01 10:29:46;;;;;;;0.43;0.43;;;31.40;65.80;;;;;;5095917;28;20395;-63
2023/10/01 10:32:16;;;;;;;0.40;0.40;;;31.50;66.80;;;;;;5075159;28;20403;-64
2023/10/01 10:35:03;;;;;;;0.90;0.90;;;31.50;65.40;;;;;;5074912;28;20421;-63
2023/10/01 10:37:35;;;;;;;1.03;0.87;;;31.20;66.80;;;;;;5075121;28;20408;-64
2023/10/01 10:40:22;;;;;;;0.30;0.30;;;30.80;67.60;;;;;;5075213;28;20400;-68
2023/10/01 10:42:57;;;;;;;0.40;0.40;;;30.70;69.30;;;;;;5075016;28;20416;-63
2023/10/01 10:45:26;;;;;;;2.20;0.73;;;30.60;69.80;;;;;;5081803;28;20473;-67
2023/10/01 10:48:21;;;;;;;0.63;0.63;;;30.30;71.60;;;;;;5095293;28;20400;-63
2023/10/01 10:50:50;;;;;;;0.63;0.63;;;30.10;71.80;;;;;;5093896;28;20979;-66
2023/10/01 10:53:22;;;;;;;0.50;0.50;;;29.80;73.30;;;;;;5095015;28;20381;-64
2023/10/01 10:56:35;;;;;;;0.50;0.43;;;29.90;73.60;;;;;;5075776;28;20445;-67
2023/10/01 10:59:03;;;;;;;0.97;0.60;;;29.90;73.20;;;;;;5084565;28;20473;-67
2023/10/01 11:01:44;;;;;;;0.30;0.20;;;29.30;75.10;;;;;;5075516;28;20777;-68
2023/10/01 11:04:11;;;;;;;1.20;0.63;;;29.10;75.00;;;;;;5074357;28;20453;-63
2023/10/01 11:06:42;;;;;;;0.40;0.40;;;28.60;73.90;;;;;;5074504;28;20425;-65
2023/10/01 11:09:25;;;;;;;0.30;0.30;;;28.10;74.30;;;;;;5074576;28;20386;-67
2023/10/01 11:11:53;;;;;;;0.30;0.20;;;27.30;76.60;;;;;;5071255;28;20917;-67
2023/10/01 11:14:25;;;;;;;0.40;0.33;;;26.60;78.60;;;;;;5076205;28;20438;-67
2023/10/01 11:16:50;;;;;;;0.30;0.30;;;26.10;80.70;;;;;;5094313;28;20875;-67
2023/10/01 11:19:20;;;;;;;0.40;0.40;;;25.60;83.70;;;;;;5094613;28;20496;-66
2023/10/01 11:22:00;;;;;;;0.67;0.67;;;25.20;85.00;;;;;;5079885;28;20208;-63
2023/10/01 11:24:42;;;;;;;0.90;0.40;;;24.80;85.80;;;;;;5073915;28;20407;-63
2023/10/01 11:30:13;;;;;;;2.17;1.00;;;24.20;87.30;;;;;;5074442;28;20720;-67
2023/10/01 11:32:58;;;;;;;0.30;0.30;;;23.90;87.70;;;;;;5074103;28;20819;-64
2023/10/01 11:35:31;;;;;;;0.60;0.50;;;23.80;88.40;;;;;;5077810;28;20466;-69
2023/10/01 11:38:24;;;;;;;0.97;0.97;;;23.60;89.60;;;;;;5094112;28;20430;-63
2023/10/01 11:44:00;;;;;;;0.40;0.40;;;23.50;90.70;;;;;;5094255;28;20963;-68
2023/10/01 11:46:35;;;;;;;0.30;0.30;;;23.40;91.30;;;;;;5093871;28;20412;-67
2023/10/01 11:49:06;;;;;;;0.30;0.30;;;23.30;90.40;;;;;;5093673;28;20380;-66
2023/10/01 11:54:44;;;;;;;0.30;0.20;;;23.20;90.70;;;;;;5073116;28;20425;-68
2023/10/01 11:57:22;;;;;;;0.30;0.20;;;23.10;91.90;;;;;;5055725;28;20443;-64
2023/10/01 11:59:59;;;;;;;0.30;0.20;;;23.20;91.10;;;;;;5073443;28;20405;-64
2023/10/01 12:02:30;;;;;;;0.73;0.73;;;23.20;91.30;;;;;;5073717;28;20414;-66
2023/10/01 12:04:57;;;;;;;0.30;0.20;;;23.20;91.20;;;;;;5078078;28;20434;-64
2023/10/01 12:07:39;;;;;;;0.30;0.30;;;23.20;90.80;;;;;;5093023;28;20419;-68
2023/10/01 12:10:07;;;;;;;0.40;0.40;;;23.30;90.70;;;;;;5093897;28;20751;-63
2023/10/01 12:12:37;;;;;;;0.30;0.20;;;23.30;90.60;;;;;;5075878;28;20420;-64
2023/10/01 12:17:50;;;;;;;0.40;0.37;;;23.30;91.20;;;;;;5092764;28;20444;-64
2023/10/01 12:20:22;;;;;;;0.30;0.23;;;23.40;90.60;;;;;;5073404;28;20450;-68
2023/10/01 12:25:50;;;;;;;2.10;0.77;;;23.40;91.20;;;;;;5072958;28;20937;-67
2023/10/01 12:28:26;;;;;;;0.43;0.43;;;23.50;90.70;;;;;;5073422;28;20439;-67
2023/10/01 12:31:00;;;;;;;0.30;0.30;;;23.50;90.60;;;;;;5073251;28;20417;-63
2023/10/01 12:33:40;;;;;;;0.40;0.40;;;23.50;90.40;;;;;;5081040;28;20416;-64
2023/10/01 12:39:16;;;;;;;0.90;0.50;;;23.60;90.80;;;;;;5093795;28;20439;-69
2023/10/01 12:44:36;;;;;;;0.30;0.20;;;23.80;90.40;;;;;;5092979;28;20410;-67
2023/10/01 12:47:06;;;;;;;0.30;0.23;;;23.90;89.20;;;;;;5093154;28;20438;-65
2023/10/01 12:49:33;;;;;;;0.30;0.20;;;23.90;90.00;;;;;;5073690;28;20962;-67
2023/10/01 12:52:08;;;;;;;0.30;0.30;;;23.90;89.80;;;;;;5076350;28;20407;-63
2023/10/01 12:54:36;;;;;;;0.30;0.20;;;23.80;89.60;;;;;;5076409;28;20543;-67
2023/10/01 12:57:02;;;;;;;0.70;0.70;;;23.80;89.60;;;;;;5077146;28;20407;-63
2023/10/01 12:59:41;;;;;;;0.30;0.20;;;23.70;89.70;;;;;;5076898;28;20906;-67
2023/10/01 13:02:22;;;;;;;0.43;0.40;;;23.50;89.40;;;;;;5077802;28;20449;-64
2023/10/01 13:05:16;;;;;;;0.60;0.47;;;23.50;89.60;;;;;;5096780;28;20795;-64
2023/10/01 13:07:37;;;;;;;0.40;0.40;;;23.40;89.70;;;;;;5096917;28;21009;-65
2023/10/01 13:10:06;;;;;;;0.30;0.20;;;23.40;89.80;;;;;;5096964;28;20514;-65
2023/10/01 13:12:39;;;;;;;0.30;0.30;;;23.50;88.60;;;;;;5096653;28;20176;-64
2023/10/01 13:15:15;;;;;;;0.30;0.20;;;23.50;87.40;;;;;;5096631;28;20911;-65
2023/10/01 13:17:44;;;;;;;0.30;0.30;;;23.60;86.40;;;;;;5088606;28;20384;-63
2023/10/01 13:20:24;;;;;;;0.30;0.20;;;23.60;86.60;;;;;;5076722;28;20482;-68
2023/10/01 13:22:59;;;;;;;0.30;0.20;;;23.60;85.70;;;;;;5076660;28;20742;-63
2023/10/01 13:25:26;;;;;;;1.53;0.73;;;23.60;85.00;;;;;;5076242;28;20430;-67
2023/10/01 13:28:01;;;;;;;0.53;0.53;;;23.70;84.50;;;;;;5076353;28;20399;-64
2023/10/01 13:33:25;;;;;;;0.30;0.30;;;23.70;84.40;;;;;;5096657;28;20383;-68
2023/10/01 13:35:57;;;;;;;0.30;0.20;;;23.70;84.00;;;;;;5092819;28;20453;-69
2023/10/01 13:38:37;;;;;;;0.30;0.30;;;23.70;84.60;;;;;;5076456;28;20919;-66
2023/10/01 14:11:05;;;;;;;0.30;0.20;;;24.00;79.70;;;;;;5084340;28;20411;-64
2023/10/01 14:13:34;;;;;;;0.97;0.50;;;24.00;79.70;;;;;;5095501;28;20426;-64
2023/10/01 14:16:22;;;;;;;0.80;0.50;;;24.00;80.30;;;;;;5077172;28;20401;-64
2023/10/01 14:18:54;;;;;;;0.30;0.20;;;24.00;79.90;;;;;;5095857;28;20471;-64
2023/10/01 14:21:24;;;;;;;0.30;0.30;;;24.00;79.50;;;;;;5095614;28;20395;-67
2023/10/01 14:24:42;;;;;;;0.30;0.30;;;24.10;79.90;;;;;;5094257;28;20398;-68
2023/10/01 14:26:46;;;;;;;0.30;0.30;;;24.10;80.00;;;;;;5061928;28;20489;-68
2023/10/01 14:29:22;;;;;;;0.30;0.30;;;24.10;79.40;;;;;;5075652;28;20458;-67
2023/10/01 14:31:49;;;;;;;0.77;0.43;;;24.00;78.70;;;;;;5075477;28;20370;-63
2023/10/01 14:34:20;;;;;;;0.50;0.50;;;24.00;78.70;;;;;;5074916;28;20456;-66
2023/10/01 14:36:46;;;;;;;0.73;0.50;;;24.00;79.20;;;;;;5075277;28;20423;-66
2023/10/01 14:39:13;;;;;;;0.30;0.20;;;24.00;79.00;;;;;;5081090;28;20444;-70
2023/10/01 14:41:45;;;;;;;0.33;0.33;;;24.00;78.00;;;;;;5095380;28;20375;-65
2023/10/01 14:44:12;;;;;;;0.40;0.40;;;24.00;78.30;;;;;;5095091;28;20768;-62
2023/10/01 14:46:40;;;;;;;0.30;0.30;;;24.00;77.90;;;;;;5095360;28;20433;-66
2023/10/01 14:49:06;;;;;;;0.40;0.40;;;24.00;76.60;;;;;;5095337;28;20380;-66
2023/10/01 14:51:36;;;;;;;0.60;0.60;;;23.90;77.00;;;;;;5095170;28;20867;-67
2023/10/01 14:54:04;;;;;;;0.30;0.30;;;23.90;77.00;;;;;;5087782;28;20200;-65
2023/10/01 14:56:31;;;;;;;0.50;0.50;;;23.90;76.90;;;;;;5074910;28;20423;-63
2023/10/01 14:59:01;;;;;;;0.50;0.50;;;23.80;76.70;;;;;;5074582;28;20389;-65
2023/10/01 15:01:36;;;;;;;0.30;0.20;;;23.80;76.40;;;;;;5074776;28;20459;-64
2023/10/01 15:04:20;;;;;;;0.30;0.30;;;23.70;75.40;;;;;;5074239;28;20463;-63
2023/10/01 15:06:56;;;;;;;0.57;0.57;;;23.70;75.10;;;;;;5074349;28;20454;-64
2023/10/01 15:09:26;;;;;;;0.40;0.40;;;23.70;75.10;;;;;;5075517;28;20461;-65
2023/10/01 15:11:54;;;;;;;0.50;0.50;;;23.60;74.90;;;;;;5074521;28;20385;-65
2023/10/01 15:14:28;;;;;;;0.30;0.20;;;23.60;74.60;;;;;;5073641;28;20443;-68
2023/10/01 15:16:55;;;;;;;0.80;0.50;;;23.60;74.20;;;;;;5074574;28;20414;-64
2023/10/01 15:19:30;;;;;;;0.50;0.50;;;23.60;73.70;;;;;;5074358;28;20429;-65
2023/10/01 15:22:08;;;;;;;1.07;0.63;;;23.60;73.20;;;;;;5089392;28;20486;-62
2023/10/01 15:24:42;;;;;;;0.30;0.30;;;23.60;72.20;;;;;;5093723;28;20418;-66
2023/10/01 15:27:08;;;;;;;0.40;0.30;;;23.50;71.10;;;;;;5094496;28;20508;-67
2023/10/01 15:29:34;;;;;;;0.50;0.50;;;23.50;70.50;;;;;;5094553;28;20442;-65
2023/10/01 15:32:00;;;;;;;0.30;0.30;;;23.50;70.20;;;;;;5094341;28;20819;-68
2023/10/01 15:34:27;;;;;;;0.30;0.20;;;23.50;69.40;;;;;;5075708;28;20200;-63
2023/10/01 15:36:53;;;;;;;0.30;0.20;;;23.50;68.60;;;;;;5086097;28;20526;-66
2023/10/01 15:42:11;;;;;;;0.30;0.20;;;23.40;69.70;;;;;;5074129;28;20384;-62
2023/10/01 15:44:47;;;;;;;0.30;0.30;;;23.40;70.10;;;;;;5073554;28;20396;-66
2023/10/01 15:47:39;;;;;;;0.30;0.20;;;23.30;71.30;;;;;;5074108;28;20402;-66
2023/10/01 15:50:15;;;;;;;0.40;0.40;;;23.20;72.10;;;;;;5073944;28;20411;-67
2023/10/01 15:52:46;;;;;;;0.30;0.30;;;23.10;71.80;;;;;;5073988;28;20379;-63
2023/10/01 15:55:19;;;;;;;0.30;0.30;;;23.00;71.90;;;;;;5088082;28;20491;-65
2023/10/01 15:58:01;;;;;;;0.30;0.30;;;23.00;71.80;;;;;;5094314;28;20410;-67
2023/10/01 16:00:30;;;;;;;0.30;0.30;;;22.90;72.00;;;;;;5094101;28;20764;-64
2023/10/01 16:03:05;;;;;;;0.30;0.20;;;22.90;72.40;;;;;;5093983;28;20413;-62
2023/10/01 16:05:39;;;;;;;0.67;0.57;;;22.80;72.20;;;;;;5093121;28;20527;-63
2023/10/01 16:08:20;;;;;;;0.30;0.30;;;22.80;72.00;;;;;;5094560;28;20418;-64
2023/10/01 16:10:58;;;;;;;0.50;0.50;;;22.80;71.50;;;;;;5085798;28;20439;-63
2023/10/01 16:13:28;;;;;;;0.30;0.20;;;22.80;71.10;;;;;;5073884;28;20773;-66
2023/10/01 16:16:01;;;;;;;0.40;0.40;;;22.80;73.70;;;;;;5072889;28;20457;-64
2023/10/01 16:18:35;;;;;;;0.30;0.20;;;22.80;77.30;;;;;;5073835;28;20403;-68
2023/10/01 16:21:06;;;;;;;0.30;0.30;;;22.80;80.20;;;;;;5073517;28;20433;-64
2023/10/01 16:23:36;;;;;;;0.87;0.77;;;22.80;81.20;;;;;;5078469;28;20800;-63
2023/10/01 16:26:02;;;;;;;2.93;0.50;;;22.70;81.50;;;;;;5092191;28;20453;-63
2023/10/01 16:28:28;;;;;;;0.40;0.30;;;22.70;83.60;;;;;;5093594;28;20371;-65
2023/10/01 16:31:04;;;;;;;0.60;0.60;;;22.60;84.50;;;;;;5093517;28;20412;-65
2023/10/01 16:33:42;;;;;;;0.50;0.40;;;22.60;85.20;;;;;;5092199;28;20164;-64
2023/10/01 16:36:17;;;;;;;1.43;0.60;;;22.50;86.10;;;;;;5093197;28;20462;-67
2023/10/01 16:38:46;;;;;;;0.47;0.40;;;22.50;86.80;;;;;;5084203;28;20424;-63
2023/10/01 16:41:15;;;;;;;0.70;0.70;;;22.40;87.40;;;;;;5073312;28;20430;-64
2023/10/01 16:43:41;;;;;;;0.30;0.20;;;22.30;88.00;;;;;;5073001;28;20374;-65
2023/10/01 16:46:09;;;;;;;0.30;0.30;;;22.30;88.70;;;;;;5072815;28;20406;-64
2023/10/01 16:48:38;;;;;;;0.40;0.30;;;22.20;89.30;;;;;;5073049;28;20411;-64
2023/10/01 16:51:17;;;;;;;0.60;0.60;;;22.10;89.90;;;;;;5073173;28;20444;-67
2023/10/01 16:53:45;;;;;;;0.30;0.20;;;22.00;90.20;;;;;;5083918;28;20853;-63
2023/10/01 16:56:24;;;;;;;0.30;0.20;;;21.90;90.40;;;;;;5092818;28;20461;-63
2023/10/01 16:58:52;;;;;;;0.30;0.30;;;21.80;90.80;;;;;;5093305;28;20437;-66
2023/10/01 17:01:25;;;;;;;0.70;0.63;;;21.70;91.00;;;;;;5075140;28;20403;-66
2023/10/01 17:04:08;;;;;;;0.30;0.20;;;21.60;91.30;;;;;;5092856;28;20410;-67
2023/10/01 17:06:38;;;;;;;0.30;0.30;;;21.50;91.50;;;;;;5085748;28;20466;-63
2023/10/01 17:09:13;;;;;;;0.40;0.30;;;21.40;91.80;;;;;;5073007;28;20418;-67
2023/10/01 17:11:43;;;;;;;0.30;0.20;;;21.30;92.00;;;;;;5072986;28;20892;-67
2023/10/01 17:14:11;;;;;;;0.30;0.30;;;21.30;92.10;;;;;;5072487;28;20506;-66
2023/10/01 17:16:39;;;;;;;0.30;0.20;;;21.20;92.30;;;;;;5072776;28;20795;-67
2023/10/01 17:19:08;;;;;;;0.30;0.30;;;21.10;92.20;;;;;;5072943;28;20739;-64
2023/10/01 17:21:37;;;;;;;0.37;0.37;;;21.00;92.20;;;;;;5081663;28;20471;-64
2023/10/01 17:24:06;;;;;;;0.30;0.30;;;20.90;92.70;;;;;;5074536;28;20442;-65
2023/10/01 17:26:48;;;;;;;0.30;0.30;;;20.70;92.90;;;;;;5092957;28;20497;-65
2023/10/01 17:29:24;;;;;;;0.30;0.30;;;20.60;93.00;;;;;;5093178;28;20413;-66
2023/10/01 17:31:55;;;;;;;0.33;0.30;;;20.40;94.00;;;;;;5093062;28;20381;-63
2023/10/01 17:34:27;;;;;;;0.33;0.33;;;20.20;95.00;;;;;;5092546;28;20489;-64
2023/10/01 17:37:03;;;;;;;0.60;0.60;;;20.00;95.30;;;;;;5092518;28;20977;-67
2023/10/01 17:39:29;;;;;;;0.40;0.37;;;19.80;95.30;;;;;;5096543;28;20581;-63
2023/10/01 17:41:57;;;;;;;0.50;0.50;;;19.70;95.40;;;;;;5084345;28;20429;-66
2023/10/01 17:44:27;;;;;;;0.30;0.30;;;19.60;95.60;;;;;;5075892;28;20417;-66
2023/10/01 17:46:56;;;;;;;0.30;0.30;;;19.40;95.60;;;;;;5076173;28;20407;-67
2023/10/01 17:49:26;;;;;;;0.40;0.30;;;19.30;95.50;;;;;;5076128;28;20406;-68
2023/10/01 17:51:55;;;;;;;0.30;0.30;;;19.20;95.50;;;;;;5076053;28;20439;-65
2023/10/01 17:54:24;;;;;;;0.30;0.30;;;19.10;95.80;;;;;;5075685;28;20472;-67
2023/10/01 17:56:51;;;;;;;0.40;0.40;;;19.00;96.00;;;;;;5089083;28;20783;-63
2023/10/01 17:59:18;;;;;;;0.40;0.40;;;18.90;95.40;;;;;;5096266;28;20787;-65
2023/10/01 18:02:04;;;;;;;0.30;0.20;;;18.80;95.10;;;;;;5096154;28;20891;-63
2023/10/01 18:04:37;;;;;;;0.30;0.20;;;18.70;94.80;;;;;;5095615;28;20929;-63
2023/10/01 18:07:04;;;;;;;0.30;0.30;;;18.60;94.70;;;;;;5077699;28;20485;-65
2023/10/01 18:09:30;;;;;;;0.30;0.27;;;18.60;94.90;;;;;;5075900;28;20828;-64
2023/10/01 18:12:02;;;;;;;0.30;0.20;;;18.60;94.90;;;;;;5075537;28;20415;-63
2023/10/01 18:14:35;;;;;;;0.30;0.20;;;18.50;95.00;;;;;;5074941;28;20534;-65
2023/10/01 18:17:02;;;;;;;0.30;0.30;;;18.40;94.60;;;;;;5079924;28;20443;-63
2023/10/01 18:19:32;;;;;;;0.30;0.20;;;18.40;94.50;;;;;;5075465;28;20415;-64
2023/10/01 18:21:59;;;;;;;0.30;0.30;;;18.30;94.50;;;;;;5075893;28;20411;-63
2023/10/01 18:24:25;;;;;;;0.30;0.30;;;18.20;94.80;;;;;;5074974;28;20461;-63
2023/10/01 18:26:54;;;;;;;0.30;0.30;;;18.10;94.80;;;;;;5075452;28;20777;-66
2023/10/01 18:29:20;;;;;;;0.30;0.30;;;18.00;94.90;;;;;;5085544;28;20397;-67
2023/10/01 18:31:49;;;;;;;0.30;0.20;;;18.00;95.10;;;;;;5096058;28;20383;-66
2023/10/01 18:34:22;;;;;;;0.30;0.20;;;18.00;95.50;;;;;;5095279;28;20405;-67
2023/10/01 18:36:54;;;;;;;0.40;0.40;;;17.90;95.80;;;;;;5095530;28;20776;-66
2023/10/01 18:39:28;;;;;;;0.30;0.30;;;17.90;95.80;;;;;;5077420;28;20428;-65
2023/10/01 18:41:55;;;;;;;0.30;0.30;;;17.90;96.00;;;;;;5095297;28;20437;-64
2023/10/01 18:44:24;;;;;;;0.30;0.30;;;17.80;96.00;;;;;;5081888;28;20993;-67